Aérodrome :
LOGIN :

S'inscrire | Disclaimer

   EN    FR    IT 

 










Légende :    VFR   VFR Marginal   IFR   IFR Intensif   IFR Très Intensif
Visi : 
Plafond : 
>= 8 km
>= 3000ft
5 à 8 km
1000 à 3000 ft
1500m à 5 km
500 à 1000 ft
800 à 1500m
200 à 500 ft
< 800m
< 200 ft
Symboles :   Orages  Brouillard  Fortes neiges  Fortes précipitations  Vent > 20 kt
SIGMETs :   Divers  Orages  Givrage  Turbulence  Onde Orograph.  Cendres Volcan.






- Altitude de l'aérodrome : 1649 ft
- Code IATA : HHN


EDFH - Frankfurt-Hahn Rhineland-Palatinate

DERNIER METAR :
  • 282220Z 28004KT 250V310 0100 R21/0800N FG VV/// 06/06 Q1013

METARs EXPIRÉS :
  • 282150Z 28004KT 0400 R21/0800N FG VV/// 06/06 Q1013
  • 282120Z 28003KT 0400 R21/1100U FG VV/// 06/06 Q1013
  • 282050Z 27004KT 0400 R21/1500D FG VV/// 06/06 Q1013
  • 282020Z 27003KT 240V310 1500 BR SCT001 06/06 Q1012
  • 281950Z 25003KT 3000 -DZ BKN002 06/06 Q1012

TAF AMD TAF EDFH
Valide du 28 à 19h jusqu'au 29 à 18h UTC


281911Z 2819/2918 18003KT 6000 SCT001 BKN005
TEMPO 2819/2918 0600 -RADZ FG BKN001
BECMG 2900/2904 31005KT



MET'MAP, la Météo Aéronautique d'un coup d'oeil ! - Copyright ORBIFLY Décembre 2007 - Disclaimer

ORBIFLY MET'MAP TEAM :

Programmation & Développement : Alexandra Zaïnal
Sur une idée originale de : Baudouin d'Aumeries
Soutien technique & logistique : Manuel Goepfert
Assistance : Marc-Olivier Méhu




SOURCES & CREDITS :

   NOAA